Time;durP1;ratioP1;P1;durP2;ratioP2;P2;SDS_P1;SDS_P2;PMS_P1;PMS_P2;Temp;Humidity;BMP_temperature;BMP_pressure;BME280_temperature;BME280_humidity;BME280_pressure;Samples;Min_cycle;Max_cycle;Signal;HPM_P1;HPM_P2
2022/12/11 00:00:06;;;;;;;1.93;1.37;;;5.10;36.00;;;;;;5074415;28;20174;-73
2022/12/11 00:02:32;;;;;;;2.10;1.70;;;5.10;36.00;;;;;;5077015;28;20206;-73
2022/12/11 00:04:58;;;;;;;2.30;1.40;;;5.10;36.00;;;;;;5058242;28;20182;-72
2022/12/11 00:07:23;;;;;;;1.90;1.30;;;5.20;35.80;;;;;;5074963;28;20187;-73
2022/12/11 00:09:49;;;;;;;2.77;1.30;;;5.20;35.50;;;;;;5072511;28;20179;-73
2022/12/11 00:12:14;;;;;;;1.80;1.13;;;5.10;35.30;;;;;;5079071;28;20206;-72
2022/12/11 00:14:40;;;;;;;3.57;2.43;;;5.00;35.90;;;;;;5072450;28;20187;-73
2022/12/11 00:17:05;;;;;;;3.50;2.90;;;4.80;35.60;;;;;;5076249;28;20190;-73
2022/12/11 00:19:31;;;;;;;2.20;1.50;;;4.70;36.70;;;;;;5070684;28;20176;-72
2022/12/11 00:21:56;;;;;;;2.33;1.50;;;4.80;36.40;;;;;;5074031;28;20682;-72
2022/12/11 00:24:22;;;;;;;1.97;1.40;;;4.70;36.60;;;;;;5075667;28;20183;-72
2022/12/11 00:26:48;;;;;;;2.00;1.30;;;4.80;36.30;;;;;;5074383;28;20215;-72
2022/12/11 00:29:13;;;;;;;1.90;1.27;;;4.50;36.20;;;;;;5072011;28;20183;-72
2022/12/11 00:31:40;;;;;;;3.13;2.20;;;4.40;37.00;;;;;;5073086;28;20652;-73
2022/12/11 00:34:07;;;;;;;2.30;1.67;;;4.60;37.30;;;;;;5073046;28;20190;-73
2022/12/11 00:36:33;;;;;;;2.45;1.73;;;4.80;36.00;;;;;;5074821;28;20240;-73
2022/12/11 00:38:59;;;;;;;2.00;1.40;;;4.80;36.30;;;;;;5075165;28;20174;-70
2022/12/11 00:41:25;;;;;;;1.80;1.10;;;4.70;36.50;;;;;;5073522;28;20179;-70
2022/12/11 00:43:51;;;;;;;1.90;1.20;;;4.80;36.40;;;;;;5057942;28;20182;-70
2022/12/11 00:46:16;;;;;;;1.90;1.27;;;4.70;37.00;;;;;;5070246;28;20706;-70
2022/12/11 00:48:42;;;;;;;2.10;1.30;;;4.80;36.40;;;;;;5074889;28;20233;-70
2022/12/11 00:51:08;;;;;;;1.80;1.20;;;4.90;36.50;;;;;;5071377;28;20479;-70
2022/12/11 00:53:34;;;;;;;1.90;1.20;;;5.00;36.20;;;;;;5072981;28;20256;-70
2022/12/11 00:56:00;;;;;;;1.97;1.30;;;5.00;35.80;;;;;;5056686;28;20202;-70
2022/12/11 00:58:26;;;;;;;1.90;1.30;;;4.70;36.30;;;;;;5072007;28;20429;-70
2022/12/11 01:00:52;;;;;;;2.90;1.63;;;4.60;37.20;;;;;;5073150;28;20270;-71
2022/12/11 01:03:17;;;;;;;2.37;1.40;;;4.80;36.70;;;;;;5075092;28;20199;-70
2022/12/11 01:05:53;;;;;;;2.93;2.00;;;5.00;36.00;;;;;;5071271;28;20183;-71
2022/12/11 01:08:19;;;;;;;2.00;1.40;;;5.00;36.40;;;;;;5072515;28;20805;-70
2022/12/11 01:10:45;;;;;;;1.93;1.23;;;4.90;36.80;;;;;;5077705;28;20193;-69
2022/12/11 01:13:10;;;;;;;2.00;1.20;;;4.70;37.70;;;;;;5073234;28;20210;-70
2022/12/11 01:15:42;;;;;;;1.90;1.30;;;4.70;37.60;;;;;;5080618;28;20191;-72
2022/12/11 01:18:10;;;;;;;2.00;1.30;;;4.80;36.70;;;;;;5076712;28;20531;-71
2022/12/11 01:20:38;;;;;;;2.13;1.35;;;4.90;35.50;;;;;;5079041;28;20192;-71
2022/12/11 01:23:04;;;;;;;2.03;1.27;;;5.00;35.60;;;;;;5075023;28;20203;-71
2022/12/11 01:25:32;;;;;;;1.90;1.30;;;5.00;35.50;;;;;;5074951;28;20188;-70
2022/12/11 01:27:57;;;;;;;2.70;1.83;;;4.90;35.90;;;;;;5083757;28;20193;-71
2022/12/11 01:30:24;;;;;;;2.80;1.50;;;4.90;36.80;;;;;;5079076;28;20179;-71
2022/12/11 01:32:50;;;;;;;2.05;1.30;;;4.80;37.20;;;;;;5076129;28;20525;-70
2022/12/11 01:35:16;;;;;;;2.50;1.97;;;4.80;37.20;;;;;;5077206;28;20203;-71
2022/12/11 01:37:42;;;;;;;2.25;1.40;;;4.70;37.00;;;;;;5080017;28;20171;-71
2022/12/11 01:40:10;;;;;;;2.67;1.90;;;4.90;35.60;;;;;;5076253;28;20189;-71
2022/12/11 01:42:36;;;;;;;2.40;1.50;;;4.80;35.70;;;;;;5075011;28;20187;-71
2022/12/11 01:45:20;;;;;;;5.00;2.45;;;4.90;35.30;;;;;;5075273;28;20206;-70
2022/12/11 01:47:47;;;;;;;2.00;1.20;;;5.00;35.40;;;;;;5078717;28;20204;-71
2022/12/11 01:50:13;;;;;;;1.92;1.23;;;5.00;35.90;;;;;;5077251;28;20198;-71
2022/12/11 01:52:40;;;;;;;1.83;1.10;;;4.90;36.60;;;;;;5076244;28;20222;-71
2022/12/11 01:55:08;;;;;;;2.30;1.40;;;5.10;35.70;;;;;;5074004;28;20207;-71
2022/12/11 01:57:35;;;;;;;3.15;1.83;;;5.00;35.60;;;;;;5078109;28;20210;-71
2022/12/11 02:00:01;;;;;;;2.00;1.38;;;5.00;35.20;;;;;;5078482;28;20252;-71
2022/12/11 02:02:29;;;;;;;2.67;1.73;;;5.00;36.00;;;;;;5076913;28;20667;-71
2022/12/11 02:04:55;;;;;;;2.08;1.40;;;5.10;35.70;;;;;;5074199;28;20183;-71
2022/12/11 02:07:21;;;;;;;2.33;1.73;;;4.80;36.20;;;;;;5074657;28;20666;-70
2022/12/11 02:09:47;;;;;;;2.22;1.42;;;4.80;36.30;;;;;;5078383;28;20437;-71
2022/12/11 02:12:37;;;;;;;3.28;2.38;;;4.80;35.60;;;;;;5076960;28;20206;-71
2022/12/11 02:15:34;;;;;;;4.55;1.80;;;4.90;35.30;;;;;;5063138;28;20310;-71
2022/12/11 02:18:18;;;;;;;2.38;1.73;;;5.00;35.50;;;;;;5068870;28;20309;-71
2022/12/11 02:21:09;;;;;;;3.80;1.75;;;5.10;35.20;;;;;;5076147;28;20262;-71
2022/12/11 02:24:06;;;;;;;2.00;1.30;;;4.80;35.80;;;;;;5075718;28;20200;-71
2022/12/11 02:27:12;;;;;;;2.08;1.35;;;4.60;36.50;;;;;;5068601;28;20179;-70
2022/12/11 02:29:43;;;;;;;1.90;1.20;;;4.10;37.70;;;;;;5074938;28;20187;-71
2022/12/11 02:32:25;;;;;;;3.35;1.77;;;2.90;41.60;;;;;;5079371;28;20213;-70
2022/12/11 02:34:53;;;;;;;2.60;1.30;;;2.40;43.50;;;;;;5073549;28;20187;-70
2022/12/11 02:37:23;;;;;;;3.00;2.13;;;2.50;43.90;;;;;;5069085;28;20179;-71
2022/12/11 02:39:52;;;;;;;2.63;1.98;;;3.00;42.30;;;;;;5077453;28;20213;-71
2022/12/11 02:42:20;;;;;;;2.90;1.70;;;3.00;42.80;;;;;;5074412;28;20194;-72
2022/12/11 02:44:49;;;;;;;2.47;1.60;;;3.40;41.30;;;;;;5057671;28;20189;-71
2022/12/11 02:47:16;;;;;;;1.90;1.20;;;3.30;41.20;;;;;;5074888;28;20175;-71
2022/12/11 02:49:45;;;;;;;1.95;1.30;;;3.70;40.10;;;;;;5074503;28;20175;-71
2022/12/11 02:52:13;;;;;;;2.53;1.83;;;3.90;38.80;;;;;;5077465;28;20305;-71
2022/12/11 02:54:42;;;;;;;2.05;1.30;;;3.70;39.00;;;;;;5080880;28;20175;-71
2022/12/11 02:57:13;;;;;;;1.83;1.10;;;3.70;39.30;;;;;;5076463;28;20206;-72
2022/12/11 02:59:42;;;;;;;3.28;2.28;;;4.10;38.40;;;;;;5075787;28;20530;-72
2022/12/11 03:02:09;;;;;;;1.90;1.20;;;4.30;37.70;;;;;;5071312;28;20207;-72
2022/12/11 03:04:35;;;;;;;1.90;1.20;;;4.30;36.80;;;;;;5069542;28;20183;-71
2022/12/11 03:07:33;;;;;;;9.52;2.55;;;4.20;36.90;;;;;;5076034;28;20209;-71
2022/12/11 03:09:59;;;;;;;2.00;1.20;;;4.20;37.00;;;;;;5065411;28;20214;-71
2022/12/11 03:12:35;;;;;;;2.23;1.50;;;4.00;37.70;;;;;;5076042;28;20207;-72
2022/12/11 03:15:05;;;;;;;1.90;1.20;;;3.80;37.90;;;;;;5076982;28;20441;-71
2022/12/11 03:17:46;;;;;;;2.10;1.33;;;3.70;38.20;;;;;;5073366;28;20192;-71
2022/12/11 03:20:20;;;;;;;2.00;1.20;;;3.70;38.60;;;;;;5072286;28;20224;-71
2022/12/11 03:23:13;;;;;;;2.10;1.40;;;3.70;38.60;;;;;;5074845;28;20210;-71
2022/12/11 03:25:43;;;;;;;1.90;1.13;;;3.70;38.80;;;;;;5073948;28;20207;-71
2022/12/11 03:28:12;;;;;;;2.13;1.40;;;3.80;38.40;;;;;;5073748;28;20190;-71
2022/12/11 03:30:40;;;;;;;2.00;1.27;;;4.00;38.50;;;;;;5074410;28;20202;-72
2022/12/11 03:33:23;;;;;;;7.25;1.73;;;4.10;38.20;;;;;;5075470;28;20629;-71
2022/12/11 03:35:57;;;;;;;1.90;1.20;;;4.20;37.60;;;;;;5074236;28;20252;-71
2022/12/11 03:38:30;;;;;;;2.20;1.33;;;4.50;36.60;;;;;;5074229;28;20265;-71
2022/12/11 03:40:59;;;;;;;3.22;2.30;;;4.40;36.40;;;;;;5073517;28;20228;-72
2022/12/11 03:43:27;;;;;;;2.50;1.80;;;4.60;36.00;;;;;;5070561;28;20223;-71
2022/12/11 03:45:54;;;;;;;2.00;1.40;;;4.50;36.50;;;;;;5076233;28;20211;-71
2022/12/11 03:48:20;;;;;;;2.05;1.33;;;4.20;37.20;;;;;;5057771;28;20195;-71
2022/12/11 03:50:48;;;;;;;2.75;2.00;;;3.90;38.20;;;;;;5073527;28;20183;-72
2022/12/11 03:53:15;;;;;;;18.90;3.25;;;3.90;38.30;;;;;;5075146;28;20638;-71
2022/12/11 03:55:41;;;;;;;2.72;1.80;;;4.00;39.00;;;;;;5073746;28;20267;-71
2022/12/11 03:58:07;;;;;;;1.90;1.20;;;4.00;37.90;;;;;;5073660;28;20602;-71
2022/12/11 04:00:33;;;;;;;2.13;1.40;;;3.90;37.80;;;;;;5074704;28;20183;-71
2022/12/11 04:03:14;;;;;;;2.00;1.30;;;3.90;37.70;;;;;;5069748;28;20203;-71
2022/12/11 04:05:49;;;;;;;1.90;1.20;;;3.80;38.00;;;;;;5074513;28;20273;-72
2022/12/11 04:08:16;;;;;;;2.80;1.45;;;3.70;38.40;;;;;;5074109;28;20685;-71
2022/12/11 04:10:42;;;;;;;2.40;1.50;;;3.70;38.20;;;;;;5073806;28;20226;-71
2022/12/11 04:13:09;;;;;;;2.90;1.73;;;3.50;38.00;;;;;;5070498;28;20233;-71
2022/12/11 04:15:35;;;;;;;5.25;2.42;;;3.10;39.10;;;;;;5073781;28;20195;-72
2022/12/11 04:26:18;;;;;;;2.30;1.50;;;2.90;39.40;;;;;;5070547;28;20236;-72
2022/12/11 04:28:46;;;;;;;1.98;1.20;;;2.80;40.00;;;;;;5070966;28;20201;-71
2022/12/11 04:31:14;;;;;;;1.90;1.10;;;3.10;39.60;;;;;;5076200;28;20247;-71
2022/12/11 04:33:39;;;;;;;2.00;1.20;;;3.40;38.60;;;;;;5069361;28;20250;-72
2022/12/11 04:36:06;;;;;;;1.90;1.20;;;3.70;37.30;;;;;;5072647;28;20283;-71
2022/12/11 04:38:31;;;;;;;2.45;1.42;;;3.80;36.90;;;;;;5074268;28;20520;-71
2022/12/11 04:41:02;;;;;;;2.10;1.40;;;3.70;37.50;;;;;;5072969;28;20242;-71
2022/12/11 04:43:29;;;;;;;2.10;1.30;;;3.90;37.00;;;;;;5067293;28;20209;-71
2022/12/11 04:46:08;;;;;;;2.50;1.60;;;3.90;36.40;;;;;;5074574;28;20179;-71
2022/12/11 04:48:34;;;;;;;2.10;1.27;;;3.90;36.80;;;;;;5075111;28;20183;-71
2022/12/11 04:51:00;;;;;;;2.85;2.13;;;4.00;36.70;;;;;;5081472;28;20179;-71
2022/12/11 04:53:26;;;;;;;2.30;1.40;;;4.10;36.50;;;;;;5081534;28;20217;-71
2022/12/11 04:55:52;;;;;;;1.90;1.10;;;4.00;37.00;;;;;;5074863;28;20198;-71
2022/12/11 04:58:17;;;;;;;2.23;1.47;;;3.70;37.20;;;;;;5074359;28;20240;-71
2022/12/11 05:00:43;;;;;;;3.73;2.37;;;3.60;38.00;;;;;;5076596;28;20179;-71
2022/12/11 05:03:09;;;;;;;2.07;1.23;;;3.50;37.70;;;;;;5076005;28;20297;-71
2022/12/11 05:05:34;;;;;;;2.07;1.30;;;3.40;38.30;;;;;;5074390;28;20194;-71
2022/12/11 05:08:00;;;;;;;2.00;1.20;;;3.40;38.30;;;;;;5077613;28;20182;-71
2022/12/11 05:10:26;;;;;;;2.30;1.60;;;3.30;38.60;;;;;;5071847;28;20245;-71
2022/12/11 05:12:51;;;;;;;2.20;1.50;;;3.30;38.70;;;;;;5076060;28;20199;-71
2022/12/11 05:15:17;;;;;;;2.63;1.40;;;3.40;38.70;;;;;;5075822;28;20199;-71
2022/12/11 05:17:42;;;;;;;2.60;1.57;;;3.40;38.80;;;;;;5075455;28;20192;-71
2022/12/11 05:20:09;;;;;;;2.30;1.40;;;3.40;39.10;;;;;;5062353;28;20194;-71
2022/12/11 05:22:35;;;;;;;2.42;1.70;;;3.40;38.60;;;;;;5075794;28;20221;-71
2022/12/11 05:25:01;;;;;;;2.58;1.73;;;3.60;38.80;;;;;;5076642;28;20191;-71
2022/12/11 05:27:26;;;;;;;2.20;1.33;;;3.60;38.60;;;;;;5075168;28;20693;-71
2022/12/11 05:29:52;;;;;;;1.90;1.20;;;3.50;37.70;;;;;;5076374;28;20186;-72
2022/12/11 05:32:18;;;;;;;1.90;1.10;;;3.80;36.80;;;;;;5077389;28;20202;-71
2022/12/11 05:34:43;;;;;;;2.00;1.30;;;3.90;35.80;;;;;;5076220;28;20182;-71
2022/12/11 05:37:09;;;;;;;2.90;1.60;;;3.90;36.10;;;;;;5080297;28;20199;-71
2022/12/11 05:39:35;;;;;;;1.97;1.13;;;3.60;35.60;;;;;;5071389;28;20650;-71
2022/12/11 05:42:00;;;;;;;2.20;1.40;;;3.60;36.30;;;;;;5081767;28;20475;-71
2022/12/11 05:44:26;;;;;;;2.30;1.50;;;3.70;36.40;;;;;;5076788;28;20620;-71
2022/12/11 05:46:52;;;;;;;2.50;1.60;;;3.70;36.40;;;;;;5080210;28;20189;-71
2022/12/11 05:49:19;;;;;;;2.93;1.50;;;3.70;36.10;;;;;;5072647;28;20209;-71
2022/12/11 05:51:44;;;;;;;2.00;1.10;;;3.80;36.40;;;;;;5078845;28;20866;-71
2022/12/11 05:54:10;;;;;;;2.00;1.50;;;3.70;36.70;;;;;;5076799;28;20191;-72
2022/12/11 05:56:36;;;;;;;2.57;1.63;;;3.70;36.60;;;;;;5077533;28;20234;-72
2022/12/11 05:59:03;;;;;;;3.23;1.53;;;3.80;37.00;;;;;;5073055;28;20186;-72
2022/12/11 06:01:41;;;;;;;2.65;1.63;;;3.70;36.30;;;;;;5070130;28;20451;-71
2022/12/11 06:04:09;;;;;;;2.72;1.30;;;3.60;37.30;;;;;;5072595;28;20286;-71
2022/12/11 06:06:35;;;;;;;2.78;1.75;;;3.60;37.00;;;;;;5075267;28;20241;-71
2022/12/11 06:09:02;;;;;;;2.00;1.20;;;3.70;37.00;;;;;;5074149;28;20221;-71
2022/12/11 06:11:30;;;;;;;2.00;1.20;;;3.60;36.80;;;;;;5076152;28;20203;-71
2022/12/11 06:13:56;;;;;;;3.08;1.85;;;3.50;37.20;;;;;;5053910;28;20199;-72
2022/12/11 06:16:22;;;;;;;2.80;1.88;;;3.40;36.90;;;;;;5074758;28;20558;-73
2022/12/11 06:18:48;;;;;;;1.90;1.10;;;3.60;37.20;;;;;;5076989;28;20190;-71
2022/12/11 06:21:23;;;;;;;2.07;1.30;;;3.90;36.10;;;;;;5072914;28;20179;-71
2022/12/11 06:23:51;;;;;;;2.30;1.38;;;3.90;35.50;;;;;;5074767;28;20204;-72
2022/12/11 06:26:17;;;;;;;4.15;2.72;;;3.90;35.20;;;;;;5071026;28;20252;-72
2022/12/11 06:28:43;;;;;;;3.85;1.75;;;3.80;36.30;;;;;;5077229;28;20674;-71
2022/12/11 06:31:09;;;;;;;2.50;1.77;;;3.50;35.60;;;;;;5075525;28;20575;-71
2022/12/11 06:33:35;;;;;;;1.92;1.20;;;3.30;36.40;;;;;;5075351;28;20264;-71
2022/12/11 06:36:05;;;;;;;2.03;1.20;;;4.30;38.20;;;;;;5072791;28;20214;-71
2022/12/11 06:38:31;;;;;;;2.00;1.27;;;3.10;37.00;;;;;;5072776;28;20560;-71
2022/12/11 06:40:58;;;;;;;2.03;1.23;;;3.10;36.50;;;;;;5081270;28;20187;-72
2022/12/11 06:43:24;;;;;;;2.15;1.45;;;3.20;36.00;;;;;;5072130;28;20595;-72
2022/12/11 06:45:50;;;;;;;1.90;1.10;;;3.20;36.30;;;;;;5072225;28;20278;-72
2022/12/11 06:48:17;;;;;;;2.15;1.33;;;3.20;36.40;;;;;;5075653;28;20214;-72
2022/12/11 06:50:43;;;;;;;2.10;1.30;;;3.00;36.50;;;;;;5076122;28;20195;-72
2022/12/11 06:53:10;;;;;;;2.00;1.17;;;3.00;37.00;;;;;;5079478;28;20238;-72
2022/12/11 06:55:36;;;;;;;2.10;1.40;;;2.90;36.80;;;;;;5078228;28;20295;-71
2022/12/11 06:58:02;;;;;;;2.30;1.20;;;3.10;36.70;;;;;;5076378;28;20191;-71
2022/12/11 07:00:27;;;;;;;2.33;1.57;;;3.20;35.60;;;;;;5078614;28;20179;-71
2022/12/11 07:02:53;;;;;;;2.17;1.40;;;3.10;36.10;;;;;;5075084;28;20468;-71
2022/12/11 07:05:19;;;;;;;2.00;1.10;;;3.30;35.30;;;;;;5074244;28;20191;-71
2022/12/11 07:07:44;;;;;;;2.07;1.20;;;3.50;34.50;;;;;;5071558;28;20187;-71
2022/12/11 07:10:10;;;;;;;2.70;1.37;;;3.60;33.90;;;;;;5072482;28;20180;-72
2022/12/11 07:12:36;;;;;;;2.20;1.27;;;3.50;35.10;;;;;;5073026;28;20623;-72
2022/12/11 07:15:03;;;;;;;3.83;2.53;;;3.50;34.50;;;;;;5075278;28;20205;-72
2022/12/11 07:17:28;;;;;;;2.20;1.40;;;3.20;35.70;;;;;;5074527;28;20647;-71
2022/12/11 07:19:54;;;;;;;2.17;1.30;;;2.90;35.80;;;;;;5070057;28;20197;-72
2022/12/11 07:22:21;;;;;;;2.30;1.30;;;2.90;35.90;;;;;;5070396;28;20670;-71
2022/12/11 07:24:46;;;;;;;4.18;1.88;;;2.90;36.00;;;;;;5067938;28;20434;-72
2022/12/11 07:27:12;;;;;;;2.40;1.50;;;2.80;36.00;;;;;;5073632;28;20183;-72
2022/12/11 07:29:37;;;;;;;3.13;2.13;;;2.60;36.40;;;;;;5069615;28;20233;-71
2022/12/11 07:32:03;;;;;;;3.27;2.33;;;2.50;36.80;;;;;;5071812;28;20247;-72
2022/12/11 07:34:29;;;;;;;2.63;1.77;;;2.50;36.80;;;;;;5053011;28;20280;-72
2022/12/11 07:36:54;;;;;;;2.10;1.20;;;2.60;36.60;;;;;;5074328;28;20270;-71
2022/12/11 07:39:20;;;;;;;2.20;1.30;;;2.30;37.10;;;;;;5073073;28;20323;-71
2022/12/11 07:41:45;;;;;;;2.53;1.47;;;2.10;37.40;;;;;;5074113;28;20191;-73
2022/12/11 07:44:11;;;;;;;2.10;1.20;;;2.30;37.40;;;;;;5074138;28;20240;-71
2022/12/11 07:46:38;;;;;;;2.42;1.52;;;2.30;37.40;;;;;;5071556;28;20186;-71
2022/12/11 07:49:05;;;;;;;2.30;1.25;;;2.30;37.50;;;;;;5073120;28;20187;-72
2022/12/11 07:51:35;;;;;;;2.72;1.63;;;2.40;37.50;;;;;;5069127;28;20325;-72
2022/12/11 07:54:15;;;;;;;2.25;1.30;;;2.50;37.30;;;;;;5074337;28;20190;-71
2022/12/11 07:56:43;;;;;;;3.85;2.20;;;2.40;37.10;;;;;;5072544;28;20199;-71
2022/12/11 07:59:09;;;;;;;2.30;1.38;;;2.60;36.70;;;;;;5074411;28;20187;-71
2022/12/11 08:01:36;;;;;;;2.13;1.30;;;2.90;37.10;;;;;;5069645;28;20183;-71
2022/12/11 08:04:04;;;;;;;2.17;1.23;;;2.80;36.40;;;;;;5055999;28;20194;-71
2022/12/11 08:06:32;;;;;;;2.50;1.50;;;3.00;36.30;;;;;;5072059;28;20190;-71
2022/12/11 08:08:59;;;;;;;2.90;1.95;;;3.00;35.20;;;;;;5074449;28;20273;-71
2022/12/11 08:11:25;;;;;;;2.38;1.48;;;2.80;35.90;;;;;;5069986;28;20179;-73
2022/12/11 08:13:51;;;;;;;6.97;2.47;;;2.90;36.10;;;;;;5072009;28;20224;-72
2022/12/11 08:16:18;;;;;;;2.30;1.43;;;2.90;35.90;;;;;;5072088;28;20230;-72
2022/12/11 08:18:45;;;;;;;2.90;1.63;;;3.00;35.70;;;;;;5077845;28;21000;-71
2022/12/11 08:21:12;;;;;;;2.30;1.38;;;3.30;34.70;;;;;;5073627;28;20186;-72
2022/12/11 08:23:37;;;;;;;2.85;1.75;;;3.30;34.10;;;;;;5074617;28;20191;-71
2022/12/11 08:26:09;;;;;;;4.53;2.07;;;3.30;34.70;;;;;;5077602;28;20269;-74
2022/12/11 08:28:35;;;;;;;4.15;1.70;;;3.20;35.10;;;;;;5066397;28;20175;-71
2022/12/11 08:31:07;;;;;;;2.78;1.73;;;3.10;35.50;;;;;;5076465;28;20190;-73
2022/12/11 08:33:33;;;;;;;2.42;1.50;;;3.00;35.60;;;;;;5074809;28;20213;-75
2022/12/11 08:36:02;;;;;;;2.10;1.20;;;2.80;35.90;;;;;;5080907;28;20217;-75
2022/12/11 08:38:28;;;;;;;5.65;2.67;;;2.70;36.40;;;;;;5073187;28;20213;-75
2022/12/11 08:40:53;;;;;;;2.17;1.43;;;2.50;36.90;;;;;;5076708;28;20196;-75
2022/12/11 08:43:19;;;;;;;2.50;1.83;;;2.60;36.80;;;;;;5072305;28;20682;-74
2022/12/11 08:45:45;;;;;;;2.20;1.13;;;2.90;36.00;;;;;;5072184;28;20187;-73
2022/12/11 08:48:11;;;;;;;3.75;2.40;;;3.10;35.60;;;;;;5073886;28;20186;-73
2022/12/11 08:50:37;;;;;;;2.30;1.70;;;3.10;35.80;;;;;;5058762;28;20274;-73
2022/12/11 08:53:02;;;;;;;3.13;2.03;;;3.10;35.50;;;;;;5073467;28;20241;-73
2022/12/11 08:55:28;;;;;;;2.17;1.30;;;3.20;35.20;;;;;;5071957;28;20195;-71
2022/12/11 08:57:54;;;;;;;2.40;1.40;;;3.20;35.20;;;;;;5074651;28;20772;-72
2022/12/11 09:00:20;;;;;;;3.03;1.90;;;3.10;35.10;;;;;;5073766;28;20182;-73
2022/12/11 09:02:46;;;;;;;2.80;1.70;;;3.20;35.10;;;;;;5073789;28;20230;-74
2022/12/11 09:05:12;;;;;;;2.20;1.30;;;3.10;35.10;;;;;;5068974;28;20440;-73
2022/12/11 09:07:38;;;;;;;2.10;1.20;;;2.70;35.80;;;;;;5074564;28;20191;-73
2022/12/11 09:10:05;;;;;;;2.20;1.30;;;2.50;36.40;;;;;;5072490;28;20230;-72
2022/12/11 09:12:32;;;;;;;2.22;1.35;;;2.10;37.20;;;;;;5070530;28;20221;-70
2022/12/11 09:14:59;;;;;;;2.60;1.80;;;2.30;36.90;;;;;;5064833;28;20187;-74
2022/12/11 09:17:25;;;;;;;2.53;1.58;;;2.60;36.80;;;;;;5069077;28;20284;-72
2022/12/11 09:19:50;;;;;;;2.60;1.63;;;2.90;36.30;;;;;;5072421;28;20180;-72
2022/12/11 09:22:16;;;;;;;2.20;1.30;;;3.20;35.10;;;;;;5074351;28;20554;-73
2022/12/11 09:24:42;;;;;;;2.20;1.30;;;3.50;34.70;;;;;;5057199;28;20179;-71
2022/12/11 09:27:08;;;;;;;2.40;1.60;;;3.80;34.20;;;;;;5068924;28;20566;-71
2022/12/11 09:29:33;;;;;;;2.33;1.50;;;4.00;33.70;;;;;;5070568;28;20249;-71
2022/12/11 09:31:59;;;;;;;2.40;1.60;;;4.20;33.60;;;;;;5082068;28;20203;-72
2022/12/11 09:34:24;;;;;;;2.30;1.67;;;4.60;32.10;;;;;;5081996;28;20262;-72
2022/12/11 09:36:50;;;;;;;2.20;1.50;;;4.10;32.60;;;;;;5082688;28;20755;-72
2022/12/11 09:39:17;;;;;;;2.20;1.33;;;3.90;32.70;;;;;;5072355;28;20183;-71
2022/12/11 09:42:18;;;;;;;2.47;1.75;;;4.30;32.50;;;;;;5075843;28;20187;-72
2022/12/11 09:44:54;;;;;;;1.95;1.30;;;3.60;33.50;;;;;;5081330;28;20823;-71
2022/12/11 09:47:38;;;;;;;2.10;1.50;;;4.20;32.00;;;;;;5075058;28;20198;-71
2022/12/11 09:50:18;;;;;;;1.80;1.10;;;4.60;30.50;;;;;;5070367;28;20187;-71
2022/12/11 09:52:46;;;;;;;1.85;1.20;;;4.60;31.00;;;;;;5072219;28;20699;-71
2022/12/11 09:55:20;;;;;;;2.30;1.50;;;4.60;31.50;;;;;;5073088;28;20198;-70
2022/12/11 09:58:04;;;;;;;2.20;1.38;;;4.30;31.10;;;;;;5073929;28;20724;-72
2022/12/11 10:00:48;;;;;;;2.30;1.85;;;4.10;32.10;;;;;;5072989;28;20195;-74
2022/12/11 10:03:41;;;;;;;2.67;1.80;;;4.80;30.60;;;;;;5079621;28;20209;-71
2022/12/11 10:06:25;;;;;;;1.85;1.25;;;4.80;30.10;;;;;;5063562;28;20221;-70
2022/12/11 10:09:18;;;;;;;3.58;1.73;;;4.60;30.10;;;;;;5072753;28;20855;-78
2022/12/11 10:12:16;;;;;;;2.72;1.45;;;4.30;32.10;;;;;;5064575;28;20208;-71
2022/12/11 10:15:09;;;;;;;2.10;1.50;;;4.80;30.00;;;;;;5046624;28;20191;-71
2022/12/11 10:17:37;;;;;;;1.80;1.13;;;5.20;29.50;;;;;;5065318;28;20189;-71
2022/12/11 10:20:33;;;;;;;3.50;2.00;;;4.50;30.90;;;;;;5069462;28;20539;-77
2022/12/11 10:23:00;;;;;;;2.53;1.70;;;4.70;30.60;;;;;;5066299;28;20219;-73
2022/12/11 10:25:39;;;;;;;1.85;1.20;;;7.80;33.90;;;;;;5075854;28;20179;-71
2022/12/11 10:28:16;;;;;;;1.98;1.30;;;4.90;30.30;;;;;;5080040;28;20254;-70
2022/12/11 10:31:03;;;;;;;2.15;1.48;;;4.20;31.90;;;;;;5071333;28;20182;-70
2022/12/11 10:33:51;;;;;;;2.92;1.80;;;4.40;32.30;;;;;;5064098;28;20187;-71
2022/12/11 10:36:25;;;;;;;1.70;1.20;;;4.50;31.90;;;;;;5073542;28;20248;-70
2022/12/11 10:38:50;;;;;;;2.70;1.50;;;4.40;31.20;;;;;;5080764;28;20168;-72
2022/12/11 10:41:25;;;;;;;2.77;1.97;;;4.80;31.20;;;;;;5077744;28;20499;-71
2022/12/11 10:43:52;;;;;;;2.10;1.48;;;4.90;30.00;;;;;;5071394;28;20657;-72
2022/12/11 10:46:31;;;;;;;2.15;1.42;;;5.30;30.00;;;;;;5076210;28;20183;-70
2022/12/11 10:49:00;;;;;;;2.60;1.55;;;4.90;31.50;;;;;;5071558;28;20179;-70
2022/12/11 10:51:29;;;;;;;1.80;1.30;;;5.40;31.20;;;;;;5074765;28;20274;-70
2022/12/11 10:54:02;;;;;;;2.42;1.52;;;5.50;31.30;;;;;;5069979;28;20206;-74
2022/12/11 10:56:30;;;;;;;2.30;1.65;;;5.90;30.00;;;;;;5061296;28;20298;-75
2022/12/11 10:58:57;;;;;;;1.60;1.10;;;5.80;29.90;;;;;;5057670;28;20252;-74
2022/12/11 11:01:26;;;;;;;1.77;1.20;;;5.40;30.20;;;;;;5076368;28;20704;-72
2022/12/11 11:04:03;;;;;;;1.60;1.10;;;5.50;30.10;;;;;;5080017;28;20179;-74
2022/12/11 11:06:29;;;;;;;1.75;1.27;;;5.90;29.90;;;;;;5069462;28;20626;-72
2022/12/11 11:08:59;;;;;;;14.53;2.23;;;6.20;28.90;;;;;;5077649;28;20171;-74
2022/12/11 11:11:31;;;;;;;1.83;1.30;;;6.40;28.60;;;;;;5071874;28;20943;-73
2022/12/11 11:14:17;;;;;;;1.80;1.25;;;6.40;28.90;;;;;;5067545;28;20190;-74
2022/12/11 11:16:45;;;;;;;2.60;2.03;;;6.40;29.00;;;;;;5069866;28;20203;-74
2022/12/11 11:19:22;;;;;;;2.33;1.75;;;6.30;30.10;;;;;;5068745;28;20193;-74
2022/12/11 11:21:55;;;;;;;1.70;1.20;;;5.60;29.80;;;;;;5081943;28;20331;-73
2022/12/11 11:24:35;;;;;;;1.70;1.20;;;5.60;30.00;;;;;;5080138;28;20183;-74
2022/12/11 11:27:01;;;;;;;1.80;1.17;;;5.90;29.90;;;;;;5069465;28;20202;-74
2022/12/11 11:29:33;;;;;;;1.70;1.27;;;6.30;30.10;;;;;;5068898;28;20206;-74
2022/12/11 11:32:20;;;;;;;2.42;1.42;;;6.20;30.10;;;;;;5065472;28;20198;-74
2022/12/11 11:34:46;;;;;;;1.80;1.30;;;6.20;30.10;;;;;;5054388;28;20173;-72
2022/12/11 11:37:43;;;;;;;2.43;1.40;;;6.50;29.70;;;;;;5084856;28;20207;-74
2022/12/11 11:40:29;;;;;;;2.22;1.73;;;6.50;28.40;;;;;;5070929;28;20343;-74
2022/12/11 11:43:04;;;;;;;1.70;1.10;;;6.20;28.90;;;;;;5081097;28;20309;-73
2022/12/11 11:45:57;;;;;;;1.77;1.25;;;6.50;28.00;;;;;;5066071;28;20198;-71
2022/12/11 11:48:46;;;;;;;1.70;1.15;;;6.50;28.70;;;;;;5059801;28;20266;-71
2022/12/11 11:51:26;;;;;;;2.83;1.83;;;6.70;28.00;;;;;;5063450;28;20182;-70
2022/12/11 11:53:55;;;;;;;1.70;1.25;;;6.70;30.70;;;;;;5081969;28;20678;-70
2022/12/11 11:56:21;;;;;;;2.22;1.45;;;6.80;29.10;;;;;;5071599;28;20245;-71
2022/12/11 11:59:04;;;;;;;2.60;1.90;;;7.00;28.80;;;;;;5076775;28;20194;-72
2022/12/11 12:01:31;;;;;;;1.80;1.25;;;6.40;28.70;;;;;;5069929;28;20176;-71
2022/12/11 12:03:57;;;;;;;1.80;1.20;;;5.90;29.90;;;;;;5079997;28;20780;-71
2022/12/11 12:07:13;;;;;;;1.85;1.33;;;6.60;28.60;;;;;;5069336;28;20191;-70
2022/12/11 12:09:50;;;;;;;2.20;1.48;;;6.80;28.70;;;;;;5019003;28;20197;-72
2022/12/11 12:12:42;;;;;;;2.22;1.60;;;7.10;28.00;;;;;;5007114;28;20215;-71
2022/12/11 12:15:37;;;;;;;1.70;1.10;;;6.90;28.50;;;;;;5008379;28;20197;-72
2022/12/11 12:18:08;;;;;;;1.70;1.20;;;7.00;28.40;;;;;;4961773;28;20643;-70
2022/12/11 12:20:53;;;;;;;1.80;1.30;;;7.10;28.80;;;;;;4957071;28;20195;-77
2022/12/11 12:23:36;;;;;;;1.90;1.40;;;7.30;27.60;;;;;;4950773;28;20206;-71
2022/12/11 12:26:22;;;;;;;2.00;1.33;;;7.40;27.60;;;;;;4949525;28;20194;-70
2022/12/11 12:29:03;;;;;;;1.80;1.20;;;7.40;28.20;;;;;;4958354;28;20191;-72
2022/12/11 12:31:38;;;;;;;2.33;1.60;;;7.20;29.00;;;;;;4946757;28;20278;-70
2022/12/11 12:34:39;;;;;;;2.25;1.42;;;7.30;28.80;;;;;;4950543;28;20255;-70
2022/12/11 12:37:28;;;;;;;1.70;1.20;;;7.20;29.10;;;;;;4949957;28;20218;-71
2022/12/11 12:40:00;;;;;;;1.70;1.10;;;7.30;27.90;;;;;;4945044;28;20192;-70
2022/12/11 12:42:41;;;;;;;1.80;1.30;;;6.50;28.00;;;;;;4953415;28;20227;-70
2022/12/11 12:45:15;;;;;;;1.80;1.30;;;5.90;29.80;;;;;;4980166;28;20185;-70
2022/12/11 12:47:44;;;;;;;4.93;1.80;;;6.20;29.80;;;;;;4987079;28;20573;-70
2022/12/11 12:50:17;;;;;;;1.70;1.10;;;6.90;28.50;;;;;;4994610;28;20200;-71
2022/12/11 12:52:44;;;;;;;2.60;1.50;;;6.80;29.00;;;;;;5005206;28;20217;-70
2022/12/11 12:55:17;;;;;;;1.80;1.20;;;6.60;28.60;;;;;;5056353;28;20175;-70
2022/12/11 12:57:59;;;;;;;1.70;1.10;;;6.80;28.40;;;;;;5078613;28;20716;-70
2022/12/11 13:00:33;;;;;;;1.70;1.10;;;7.10;28.40;;;;;;5061359;28;20195;-71
2022/12/11 13:03:28;;;;;;;1.70;1.20;;;7.00;28.60;;;;;;5069198;28;20199;-71
2022/12/11 13:06:08;;;;;;;1.80;1.20;;;6.80;27.90;;;;;;5059046;28;20198;-70
2022/12/11 13:08:47;;;;;;;1.80;1.30;;;7.00;28.70;;;;;;5069207;28;20183;-70
2022/12/11 13:11:16;;;;;;;1.70;1.10;;;7.20;28.60;;;;;;5089883;28;20273;-70
2022/12/11 13:13:45;;;;;;;1.73;1.20;;;7.00;28.90;;;;;;5074324;28;20325;-70
2022/12/11 13:16:14;;;;;;;1.80;1.30;;;7.40;27.70;;;;;;5070966;28;20227;-70
2022/12/11 13:18:40;;;;;;;1.70;1.10;;;7.70;27.30;;;;;;5072689;28;20251;-70
2022/12/11 13:21:32;;;;;;;1.80;1.20;;;8.00;27.40;;;;;;5059334;28;20183;-70
2022/12/11 13:24:26;;;;;;;2.00;1.40;;;8.00;26.00;;;;;;5082427;28;20627;-70